Time;durP1;ratioP1;P1;durP2;ratioP2;P2;SDS_P1;SDS_P2;PMS_P1;PMS_P2;Temp;Humidity;BMP_temperature;BMP_pressure;BME280_temperature;BME280_humidity;BME280_pressure;Samples;Min_cycle;Max_cycle;Signal;HPM_P1;HPM_P2
2023/06/10 00:01:28;;;;;;;6.40;5.70;;;;;;;19.74;56.88;99329.12;439245;1251;138886;-72
2023/06/10 00:11:34;;;;;;;6.90;6.10;;;;;;;19.69;57.16;99326.44;439161;1251;140285;-72
2023/06/10 00:21:41;;;;;;;6.30;5.60;;;;;;;19.67;57.43;99326.94;438821;1249;140932;-73
2023/06/10 00:31:47;;;;;;;5.90;5.30;;;;;;;19.64;57.56;99325.85;439160;1253;138626;-74
2023/06/10 00:41:53;;;;;;;6.10;5.60;;;;;;;19.62;57.79;99335.32;439043;1251;138887;-72
2023/06/10 00:51:59;;;;;;;6.80;5.70;;;;;;;19.59;57.92;99340.72;439324;1253;138850;-73
2023/06/10 01:02:07;;;;;;;5.70;5.30;;;;;;;19.52;58.33;99354.45;439196;1251;138871;-73
2023/06/10 01:12:23;;;;;;;8.10;6.30;;;;;;;19.41;58.83;99367.16;439631;1251;138517;-73
2023/06/10 01:22:32;;;;;;;8.00;6.60;;;;;;;19.31;59.33;99364.14;439196;1253;138875;-72
2023/06/10 01:32:44;;;;;;;7.50;6.80;;;;;;;19.16;59.99;99368.84;438903;1251;139104;-73
2023/06/10 01:42:51;;;;;;;7.70;7.00;;;;;;;19.01;60.58;99378.17;439033;1253;139040;-73
2023/06/10 01:52:57;;;;;;;7.70;6.90;;;;;;;18.87;61.03;99376.20;439116;1250;140040;-72
2023/06/10 02:03:03;;;;;;;7.10;6.50;;;;;;;18.72;61.56;99387.98;438935;1253;139143;-73
2023/06/10 02:13:09;;;;;;;7.00;6.30;;;;;;;18.60;61.88;99401.47;438709;1251;139467;-73
2023/06/10 02:23:15;;;;;;;6.50;6.00;;;;;;;18.44;62.52;99408.33;438814;1253;139515;-73
2023/06/10 02:33:21;;;;;;;6.70;6.10;;;;;;;18.28;63.07;99400.13;439090;1250;139032;-73
2023/06/10 02:43:27;;;;;;;7.10;6.50;;;;;;;18.19;63.38;99403.89;438984;1253;139056;-72
2023/06/10 02:53:33;;;;;;;7.20;6.50;;;;;;;18.21;63.56;99412.78;439155;1253;138993;-73
2023/06/10 03:03:42;;;;;;;7.50;6.80;;;;;;;18.28;63.60;99427.23;438950;1253;139368;-72
2023/06/10 03:13:48;;;;;;;7.80;7.00;;;;;;;18.52;63.62;99430.05;439145;1253;140361;-72
2023/06/10 03:23:54;;;;;;;6.80;6.20;;;;;;;19.01;62.55;99434.93;438960;1251;139979;-72
2023/06/10 03:34:00;;;;;;;8.20;7.40;;;;;;;18.96;62.63;99433.30;439007;1253;140757;-73
2023/06/10 03:44:06;;;;;;;11.70;8.70;;;;;;;19.09;62.62;99436.85;438897;1251;139873;-73
2023/06/10 03:54:11;;;;;;;11.20;9.40;;;;;;;19.74;62.84;99435.00;438968;1251;139192;-72
2023/06/10 04:04:17;;;;;;;9.40;8.50;;;;;;;24.31;58.44;99436.98;438929;1253;139631;-72
2023/06/10 04:14:24;;;;;;;9.60;8.50;;;;;;;28.12;50.20;99444.82;439012;1253;139067;-73
2023/06/10 04:24:29;;;;;;;7.40;6.80;;;;;;;28.40;45.63;99455.13;438945;1253;139866;-72
2023/06/10 04:34:35;;;;;;;6.30;5.20;;;;;;;32.63;39.70;99453.95;439150;1251;138494;-72
2023/06/10 04:44:41;;;;;;;5.60;5.10;;;;;;;34.61;33.85;99450.89;438764;1251;139170;-72
2023/06/10 04:54:45;;;;;;;;;;;;;;;35.73;30.96;99452.75;438674;1253;138327;-72
2023/06/10 05:04:53;;;;;;;5.20;4.70;;;;;;;37.51;28.28;99466.06;438894;1254;124930;-72
2023/06/10 05:14:59;;;;;;;8.10;4.70;;;;;;;39.05;25.90;99467.52;438829;1254;139289;-72
2023/06/10 05:25:05;;;;;;;5.20;3.90;;;;;;;39.74;23.93;99471.14;438800;1251;138451;-71
2023/06/10 05:35:12;;;;;;;5.90;4.10;;;;;;;41.08;22.49;99471.55;439038;1253;138275;-70
2023/06/10 05:45:18;;;;;;;6.10;4.10;;;;;;;42.41;20.89;99471.29;438710;1251;138993;-72
2023/06/10 05:55:24;;;;;;;4.30;3.80;;;;;;;42.76;19.89;99482.11;438775;1253;138854;-71
2023/06/10 06:05:34;;;;;;;3.80;3.50;;;;;;;43.15;19.09;99488.48;438955;1253;138973;-71
2023/06/10 06:15:40;;;;;;;4.10;3.70;;;;;;;44.02;18.76;99482.59;438946;1250;138330;-71
2023/06/10 06:25:46;;;;;;;6.20;4.20;;;;;;;45.49;17.76;99483.14;438923;1251;138805;-70
2023/06/10 06:35:52;;;;;;;5.20;4.00;;;;;;;44.78;17.12;99483.78;438973;1253;138909;-71
2023/06/10 06:45:57;;;;;;;3.80;3.40;;;;;;;46.71;16.75;99488.62;439070;1249;138305;-70
2023/06/10 06:56:03;;;;;;;4.40;3.80;;;;;;;48.02;16.26;99494.39;438912;1253;138927;-70
2023/06/10 07:06:09;;;;;;;4.70;4.30;;;;;;;49.42;15.27;99507.55;438773;1251;138500;-70
2023/06/10 07:16:15;;;;;;;5.00;4.60;;;;;;;49.05;15.01;99513.42;439126;1253;138515;-70
2023/06/10 07:26:22;;;;;;;5.50;5.10;;;;;;;50.36;14.70;99520.11;438824;1251;139009;-69
2023/06/10 07:36:29;;;;;;;6.10;5.40;;;;;;;51.39;14.06;99526.55;439110;1254;139196;-70
2023/06/10 07:46:35;;;;;;;4.00;3.60;;;;;;;51.49;14.02;99529.08;439038;1251;138383;-71
2023/06/10 07:56:40;;;;;;;4.10;3.60;;;;;;;46.52;15.12;99526.66;438902;1251;138783;-71
2023/06/10 08:06:46;;;;;;;5.80;4.00;;;;;;;38.44;19.46;99527.27;438787;1251;139037;-71
2023/06/10 08:16:52;;;;;;;6.90;4.70;;;;;;;34.25;23.15;99529.43;439030;1251;139008;-72
2023/06/10 08:26:58;;;;;;;4.90;4.20;;;;;;;32.35;25.41;99535.23;438994;1253;138239;-74
2023/06/10 08:37:04;;;;;;;4.60;3.60;;;;;;;30.77;27.68;99539.84;438832;1251;138413;-73
2023/06/10 08:47:13;;;;;;;7.70;4.30;;;;;;;29.45;29.26;99553.55;438885;1251;138337;-71
2023/06/10 08:57:21;;;;;;;5.70;3.60;;;;;;;28.64;30.78;99558.22;439177;1249;138242;-72
2023/06/10 09:07:27;;;;;;;8.10;4.30;;;;;;;28.21;31.54;99556.40;439394;1251;139973;-73
2023/06/10 09:17:33;;;;;;;4.20;3.70;;;;;;;28.26;31.02;99551.48;439467;1251;138797;-72
2023/06/10 09:27:53;;;;;;;6.10;3.30;;;;;;;27.95;30.04;99553.54;439801;1253;139377;-72
2023/06/10 09:38:00;;;;;;;8.10;4.10;;;;;;;27.81;28.64;99555.23;439032;1250;140242;-73
2023/06/10 09:48:05;;;;;;;;;;;;;;;27.66;28.10;99554.10;438926;1253;138871;-72
2023/06/10 09:58:11;;;;;;;6.70;4.30;;;;;;;27.42;27.34;99548.30;439245;1251;124933;-71
2023/06/10 10:08:17;;;;;;;4.90;3.30;;;;;;;27.11;27.38;99538.25;438823;1253;141308;-73
2023/06/10 10:18:30;;;;;;;4.40;3.00;;;;;;;26.87;26.45;99542.87;438867;1251;139311;-72
2023/06/10 10:28:42;;;;;;;3.60;2.80;;;;;;;26.72;25.98;99547.54;439664;1250;138795;-73
2023/06/10 10:38:50;;;;;;;2.50;2.30;;;;;;;26.15;25.67;99543.54;438939;1252;138297;-72
2023/06/10 10:48:58;;;;;;;6.20;3.50;;;;;;;25.81;25.27;99552.95;438988;1250;139608;-73
2023/06/10 10:59:09;;;;;;;7.20;2.90;;;;;;;25.49;24.84;99553.44;439526;1253;138371;-73
2023/06/10 11:09:31;;;;;;;5.00;3.20;;;;;;;25.28;24.12;99545.01;439326;1251;138488;-72
2023/06/10 11:19:38;;;;;;;6.80;3.70;;;;;;;25.16;24.07;99544.48;439004;1250;138596;-73
2023/06/10 11:29:58;;;;;;;5.50;3.10;;;;;;;25.15;24.82;99528.12;439355;1250;139063;-73
2023/06/10 11:40:07;;;;;;;6.90;3.00;;;;;;;25.28;24.24;99532.83;439256;1250;138789;-73
2023/06/10 11:50:13;;;;;;;6.60;3.00;;;;;;;25.24;24.60;99528.13;439224;1250;139717;-73
2023/06/10 12:00:20;;;;;;;5.20;2.80;;;;;;;25.23;25.62;99511.55;438857;1250;139357;-72
2023/06/10 12:10:26;;;;;;;4.10;3.00;;;;;;;25.36;26.06;99505.02;439056;1251;139011;-72
2023/06/10 12:20:33;;;;;;;4.00;3.00;;;;;;;25.53;26.44;99497.66;438721;1253;138596;-72
2023/06/10 12:30:39;;;;;;;4.40;2.80;;;;;;;25.40;26.30;99507.81;439487;1250;139467;-72
2023/06/10 12:40:46;;;;;;;6.30;2.70;;;;;;;25.40;26.31;99505.11;439015;1250;139441;-77
2023/06/10 12:50:55;;;;;;;3.60;2.50;;;;;;;25.51;26.45;99494.23;438833;1251;140655;-72
2023/06/10 13:01:01;;;;;;;4.40;3.30;;;;;;;25.40;26.63;99497.93;438768;1251;140229;-74
2023/06/10 13:11:07;;;;;;;6.10;3.50;;;;;;;25.24;26.79;99501.89;439271;1251;138867;-73
2023/06/10 13:21:12;;;;;;;5.00;3.00;;;;;;;25.30;26.53;99492.41;439150;1253;139011;-72
2023/06/10 13:31:20;;;;;;;5.60;3.30;;;;;;;25.17;26.62;99486.34;439110;1250;139023;-72
2023/06/10 13:41:28;;;;;;;3.10;2.80;;;;;;;25.13;26.98;99487.76;439336;1250;141530;-72
2023/06/10 13:51:34;;;;;;;4.50;2.50;;;;;;;24.92;26.98;99482.83;438999;1250;139575;-72
2023/06/10 14:01:40;;;;;;;4.60;2.70;;;;;;;24.82;27.10;99481.84;439076;1250;139001;-72
2023/06/10 14:11:47;;;;;;;2.70;2.40;;;;;;;24.75;27.14;99487.08;439202;1250;138531;-71
2023/06/10 14:21:55;;;;;;;3.30;3.00;;;;;;;24.65;26.96;99479.73;438917;1251;139011;-71
2023/06/10 14:32:01;;;;;;;3.70;3.20;;;;;;;24.66;26.76;99474.09;439002;1251;139441;-72
2023/06/10 14:42:10;;;;;;;8.70;3.20;;;;;;;24.53;26.81;99469.43;438859;1251;139986;-72
2023/06/10 14:52:16;;;;;;;6.50;3.10;;;;;;;24.52;26.83;99462.32;439014;1250;138799;-73
2023/06/10 15:02:21;;;;;;;3.00;2.70;;;;;;;24.49;27.03;99466.67;438802;1253;138787;-71
2023/06/10 15:12:28;;;;;;;4.10;2.70;;;;;;;24.49;27.15;99460.27;438822;1251;138463;-73
2023/06/10 15:22:34;;;;;;;4.00;2.80;;;;;;;24.51;26.94;99462.42;439020;1249;139697;-73
2023/06/10 15:32:41;;;;;;;3.00;2.60;;;;;;;24.45;26.87;99466.80;438681;1251;138790;-72
2023/06/10 15:42:47;;;;;;;2.70;2.50;;;;;;;24.35;26.50;99475.41;438936;1250;139180;-72
2023/06/10 15:52:52;;;;;;;5.50;2.40;;;;;;;24.19;26.32;99474.85;438980;1251;140133;-73
2023/06/10 16:02:58;;;;;;;6.00;2.70;;;;;;;24.12;26.03;99477.34;438840;1253;138348;-73
2023/06/10 16:13:04;;;;;;;3.10;2.70;;;;;;;24.08;26.55;99481.42;438892;1253;140882;-72
2023/06/10 16:23:10;;;;;;;4.10;2.90;;;;;;;24.14;27.38;99484.08;439023;1251;138813;-73
2023/06/10 16:33:16;;;;;;;6.00;3.90;;;;;;;24.15;27.94;99488.25;438975;1253;138368;-73
2023/06/10 16:43:24;;;;;;;3.20;2.90;;;;;;;24.11;28.46;99489.66;438929;1249;138831;-72
2023/06/10 16:53:28;;;;;;;;;;;;;;;24.15;29.00;99493.95;439149;1251;139829;-77
2023/06/10 17:03:34;;;;;;;4.50;3.40;;;;;;;23.99;29.81;99496.59;439141;1251;125782;-72
2023/06/10 17:13:40;;;;;;;5.50;3.20;;;;;;;23.89;30.33;99505.14;438928;1251;138305;-74
2023/06/10 17:23:47;;;;;;;7.50;3.50;;;;;;;23.78;30.59;99517.51;438785;1253;140681;-73
2023/06/10 17:33:53;;;;;;;3.90;3.50;;;;;;;23.78;30.83;99524.68;438956;1251;138859;-72
2023/06/10 17:43:59;;;;;;;6.80;3.20;;;;;;;23.78;31.17;99538.45;438815;1251;140507;-72
2023/06/10 17:54:06;;;;;;;4.80;4.40;;;;;;;24.02;33.86;99555.88;438794;1251;138673;-72
2023/06/10 18:04:12;;;;;;;5.50;5.00;;;;;;;24.09;37.36;99566.16;439006;1253;138207;-72
2023/06/10 18:14:18;;;;;;;5.60;5.10;;;;;;;23.24;39.27;99575.30;438917;1251;139479;-75
2023/06/10 18:24:24;;;;;;;5.90;5.00;;;;;;;22.61;41.31;99589.70;439445;1251;138777;-73
2023/06/10 18:34:30;;;;;;;5.80;5.10;;;;;;;22.15;43.05;99612.25;439182;1251;138622;-73
2023/06/10 18:44:36;;;;;;;7.50;5.40;;;;;;;21.72;43.96;99619.55;439293;1251;138890;-74
2023/06/10 18:54:42;;;;;;;6.00;5.10;;;;;;;21.37;45.43;99639.59;439120;1254;138531;-75
2023/06/10 19:04:47;;;;;;;7.40;5.50;;;;;;;21.12;46.20;99653.28;439225;1251;138474;-75
2023/06/10 19:14:53;;;;;;;7.10;5.30;;;;;;;20.83;47.21;99661.33;439146;1253;139216;-74
2023/06/10 19:25:03;;;;;;;7.90;5.30;;;;;;;20.57;48.09;99676.52;439055;1253;166263;-74
2023/06/10 19:35:09;;;;;;;6.40;5.80;;;;;;;20.36;49.02;99686.30;439579;1251;138322;-74
2023/06/10 19:45:16;;;;;;;8.40;5.90;;;;;;;20.21;50.14;99686.61;439470;1254;139191;-74
2023/06/10 19:55:21;;;;;;;6.30;5.70;;;;;;;20.06;50.81;99694.92;439403;1253;139447;-74
2023/06/10 20:05:27;;;;;;;6.00;5.40;;;;;;;19.92;51.39;99700.08;439203;1253;138344;-74
2023/06/10 20:15:33;;;;;;;6.00;5.40;;;;;;;19.75;52.20;99700.98;439109;1253;138719;-73
2023/06/10 20:25:38;;;;;;;7.90;7.00;;;;;;;19.58;52.77;99703.25;439235;1253;140110;-75
2023/06/10 20:35:44;;;;;;;6.90;6.20;;;;;;;19.51;53.61;99718.01;439166;1251;138559;-73
2023/06/10 20:45:50;;;;;;;8.00;7.10;;;;;;;19.59;54.21;99737.91;439136;1251;138821;-73
2023/06/10 20:55:57;;;;;;;8.10;7.30;;;;;;;19.52;55.93;99744.38;439289;1251;139086;-73
2023/06/10 21:06:03;;;;;;;8.10;6.70;;;;;;;19.10;58.02;99733.50;439233;1253;138916;-73
2023/06/10 21:16:10;;;;;;;8.20;6.10;;;;;;;18.78;59.30;99740.80;439289;1251;139156;-73
2023/06/10 21:26:15;;;;;;;7.40;5.80;;;;;;;18.38;60.35;99750.80;439050;1251;139067;-74
2023/06/10 21:36:21;;;;;;;7.80;6.50;;;;;;;18.04;61.02;99759.94;439097;1253;139755;-73
2023/06/10 21:46:27;;;;;;;8.80;6.50;;;;;;;17.79;62.09;99769.09;439193;1251;139378;-75
2023/06/10 21:56:33;;;;;;;6.20;5.60;;;;;;;17.59;62.12;99768.05;439169;1253;139391;-74
2023/06/10 22:06:39;;;;;;;6.10;5.60;;;;;;;17.49;62.80;99776.73;439182;1253;140902;-73
2023/06/10 22:16:45;;;;;;;7.60;6.90;;;;;;;17.43;63.61;99769.16;439373;1253;139700;-72
2023/06/10 22:26:51;;;;;;;7.30;6.40;;;;;;;17.29;63.87;99763.64;439244;1251;139231;-71
2023/06/10 22:36:59;;;;;;;8.20;7.40;;;;;;;17.17;63.97;99771.98;439000;1253;139585;-72
2023/06/10 22:47:05;;;;;;;6.30;5.70;;;;;;;16.97;64.54;99775.09;439308;1253;139053;-74
2023/06/10 22:57:10;;;;;;;8.10;5.80;;;;;;;16.86;64.70;99772.69;439072;1253;139435;-73
2023/06/10 23:07:19;;;;;;;7.10;6.50;;;;;;;16.86;64.70;99775.90;439131;1253;139841;-74
2023/06/10 23:17:27;;;;;;;8.10;7.40;;;;;;;16.74;65.20;99779.41;439367;1252;140653;-73
2023/06/10 23:27:33;;;;;;;10.80;6.70;;;;;;;16.61;66.29;99782.06;439159;1251;138920;-72
2023/06/10 23:37:39;;;;;;;7.70;6.90;;;;;;;16.35;67.14;99778.15;438678;1253;139310;-73
2023/06/10 23:47:45;;;;;;;8.70;7.90;;;;;;;16.12;68.12;99780.95;438817;1254;139150;-71
2023/06/10 23:57:51;;;;;;;9.70;8.40;;;;;;;15.91;68.84;99780.88;439105;1252;142933;-72
